Time;durP1;ratioP1;P1;durP2;ratioP2;P2;SDS_P1;SDS_P2;PMS_P1;PMS_P2;Temp;Humidity;BMP_temperature;BMP_pressure;BME280_temperature;BME280_humidity;BME280_pressure;Samples;Min_cycle;Max_cycle;Signal;HPM_P1;HPM_P2
2021/07/04 00:02:06;;;;;;;11.38;5.38;;;589.50;1484.80;;;;;;5094145;28;20024;-70
2021/07/04 00:04:31;;;;;;;6.85;4.90;;;589.50;1484.80;;;;;;5091396;28;20525;-70
2021/07/04 00:06:57;;;;;;;16.50;5.15;;;589.50;1484.80;;;;;;5093886;28;20028;-70
2021/07/04 00:09:23;;;;;;;8.80;4.88;;;589.50;1510.40;;;;;;5093980;28;20099;-70
2021/07/04 00:11:50;;;;;;;9.02;5.38;;;589.50;1484.80;;;;;;5093733;28;20387;-71
2021/07/04 00:14:16;;;;;;;7.15;5.25;;;589.50;1510.40;;;;;;5094753;28;20426;-70
2021/07/04 00:16:44;;;;;;;8.10;5.28;;;589.50;1484.80;;;;;;5093049;28;20032;-70
2021/07/04 00:19:10;;;;;;;9.60;5.20;;;589.50;1484.80;;;;;;5094645;28;20048;-70
2021/07/04 00:21:37;;;;;;;7.78;5.40;;;589.50;1484.80;;;;;;5094303;28;20027;-69
2021/07/04 00:24:03;;;;;;;10.35;4.97;;;589.50;1484.80;;;;;;5093956;28;20071;-69
2021/07/04 00:26:30;;;;;;;9.35;5.10;;;589.50;1484.80;;;;;;5094227;28;20035;-69
2021/07/04 00:28:56;;;;;;;9.85;5.38;;;589.50;1484.80;;;;;;5094024;28;20036;-69
2021/07/04 00:31:22;;;;;;;6.78;5.05;;;589.50;1484.80;;;;;;5094232;28;20020;-69
2021/07/04 00:33:48;;;;;;;14.40;5.18;;;589.50;1484.80;;;;;;5094133;28;20031;-69
2021/07/04 00:36:14;;;;;;;8.73;5.38;;;589.50;1484.80;;;;;;5094029;28;20024;-69
2021/07/04 00:38:40;;;;;;;13.48;6.07;;;589.50;1484.80;;;;;;5094007;28;20031;-69
2021/07/04 00:41:06;;;;;;;10.65;5.90;;;589.40;1484.80;;;;;;5093869;28;20020;-69
2021/07/04 00:43:32;;;;;;;10.45;5.30;;;589.40;1484.80;;;;;;5094347;28;20111;-69
2021/07/04 00:45:58;;;;;;;10.77;5.53;;;589.40;1484.80;;;;;;5094408;28;20024;-69
2021/07/04 00:48:24;;;;;;;10.27;5.10;;;589.40;1459.20;;;;;;5094003;28;20043;-69
2021/07/04 00:50:50;;;;;;;6.30;5.03;;;589.40;1459.20;;;;;;5094108;28;20028;-69
2021/07/04 00:53:17;;;;;;;6.18;5.25;;;589.40;1459.20;;;;;;5093777;28;20507;-69
2021/07/04 00:55:43;;;;;;;6.80;4.55;;;589.40;1459.20;;;;;;5094036;28;20047;-69
2021/07/04 00:58:09;;;;;;;11.45;5.38;;;589.30;1459.20;;;;;;5093610;28;20036;-69
2021/07/04 01:00:38;;;;;;;11.50;4.90;;;589.30;1459.20;;;;;;5093731;28;20050;-69
2021/07/04 01:03:05;;;;;;;8.40;4.70;;;589.30;1459.20;;;;;;5093685;28;20052;-69
2021/07/04 01:05:35;;;;;;;7.78;5.13;;;589.30;1459.20;;;;;;5093828;28;20020;-69
2021/07/04 01:08:03;;;;;;;9.80;4.55;;;589.30;1459.20;;;;;;5094080;28;20032;-69
2021/07/04 01:10:31;;;;;;;10.30;4.90;;;589.30;1459.20;;;;;;5093570;28;20027;-69
2021/07/04 01:12:58;;;;;;;5.75;4.40;;;589.30;1459.20;;;;;;5093812;28;20024;-69
2021/07/04 01:15:26;;;;;;;8.73;4.80;;;589.30;1459.20;;;;;;5093310;28;20012;-69
2021/07/04 01:17:57;;;;;;;6.55;4.85;;;589.30;1433.60;;;;;;5093466;28;20028;-69
2021/07/04 01:20:25;;;;;;;6.28;5.15;;;589.30;1433.60;;;;;;5093781;28;20044;-69
2021/07/04 01:22:56;;;;;;;9.20;4.90;;;589.20;1459.20;;;;;;5093181;28;20099;-69
2021/07/04 01:25:22;;;;;;;7.32;4.60;;;589.20;1459.20;;;;;;5093261;28;20057;-69
2021/07/04 01:27:48;;;;;;;9.75;5.18;;;589.20;1433.60;;;;;;5093386;28;20024;-69
2021/07/04 01:30:15;;;;;;;8.82;5.30;;;589.20;1433.60;;;;;;5093376;28;20030;-71
2021/07/04 01:32:40;;;;;;;8.00;5.03;;;589.20;1459.20;;;;;;5093292;28;20103;-69
2021/07/04 01:35:07;;;;;;;8.05;5.05;;;589.10;1459.20;;;;;;5093366;28;20120;-69
2021/07/04 01:37:33;;;;;;;9.70;4.80;;;589.10;1459.20;;;;;;5093717;28;20035;-69
2021/07/04 01:39:59;;;;;;;8.75;5.38;;;589.10;1459.20;;;;;;5093308;28;20431;-69
2021/07/04 01:42:25;;;;;;;7.70;4.78;;;589.10;1459.20;;;;;;5093289;28;20024;-68
2021/07/04 01:44:51;;;;;;;9.63;5.78;;;589.10;1459.20;;;;;;5095977;28;20020;-69
2021/07/04 01:47:17;;;;;;;8.70;5.80;;;589.00;1459.20;;;;;;5097138;28;20380;-69
2021/07/04 01:49:43;;;;;;;6.13;5.38;;;588.90;1459.20;;;;;;5097430;28;20038;-69
2021/07/04 01:52:09;;;;;;;11.75;5.72;;;589.00;1459.20;;;;;;5097082;28;20438;-69
2021/07/04 01:54:36;;;;;;;9.57;5.63;;;589.00;1459.20;;;;;;5097351;28;20028;-69
2021/07/04 01:57:11;;;;;;;8.23;5.43;;;589.00;1459.20;;;;;;5097091;28;20028;-69
2021/07/04 01:59:47;;;;;;;8.75;5.90;;;589.00;1459.20;;;;;;5095846;28;20126;-69
2021/07/04 02:02:13;;;;;;;7.10;4.93;;;588.90;1459.20;;;;;;5096978;28;20111;-70
2021/07/04 02:04:42;;;;;;;11.63;5.20;;;588.90;1459.20;;;;;;5097162;28;20093;-69
2021/07/04 02:07:15;;;;;;;9.43;5.65;;;588.80;1484.80;;;;;;5096801;28;20027;-69
2021/07/04 02:09:45;;;;;;;10.73;5.82;;;588.80;1484.80;;;;;;5096777;28;20075;-69
2021/07/04 02:12:13;;;;;;;9.60;6.00;;;588.80;1484.80;;;;;;5096808;28;20491;-69
2021/07/04 02:14:39;;;;;;;8.10;5.47;;;588.80;1484.80;;;;;;5096733;28;20469;-69
2021/07/04 02:17:05;;;;;;;6.95;5.63;;;588.80;1484.80;;;;;;5096653;28;20031;-69
2021/07/04 02:19:35;;;;;;;8.07;5.07;;;564.10;1484.80;;;;;;5096879;28;20120;-69
2021/07/04 02:22:03;;;;;;;7.85;5.65;;;564.10;1484.80;;;;;;5096650;28;20020;-69
2021/07/04 02:24:29;;;;;;;9.32;5.88;;;564.10;1484.80;;;;;;5096265;28;20040;-69
2021/07/04 02:26:55;;;;;;;7.00;5.45;;;564.10;1484.80;;;;;;5096430;28;20030;-69
2021/07/04 02:29:22;;;;;;;10.90;5.88;;;564.10;1484.80;;;;;;5096465;28;20059;-69
2021/07/04 02:31:48;;;;;;;7.95;5.32;;;564.00;1484.80;;;;;;5096280;28;20047;-69
2021/07/04 02:34:14;;;;;;;7.93;5.65;;;564.00;1484.80;;;;;;5096486;28;20031;-69
2021/07/04 02:36:40;;;;;;;8.52;5.03;;;564.00;1484.80;;;;;;5096175;28;20024;-69
2021/07/04 02:39:07;;;;;;;7.47;5.55;;;564.00;1484.80;;;;;;5096299;28;20483;-69
2021/07/04 02:41:34;;;;;;;10.23;5.43;;;563.90;1484.80;;;;;;5096340;28;20021;-69
2021/07/04 02:44:00;;;;;;;7.90;5.22;;;563.90;1484.80;;;;;;5096310;28;20050;-69
2021/07/04 02:46:26;;;;;;;8.32;5.78;;;563.80;1510.40;;;;;;5095950;28;20122;-69
2021/07/04 02:48:52;;;;;;;10.45;5.50;;;563.80;1510.40;;;;;;5096087;28;20115;-69
2021/07/04 02:51:18;;;;;;;8.32;5.53;;;563.80;1510.40;;;;;;5094640;28;20115;-70
2021/07/04 02:53:44;;;;;;;10.60;6.97;;;563.70;1510.40;;;;;;5095817;28;20032;-70
2021/07/04 02:56:10;;;;;;;13.60;9.68;;;563.70;1510.40;;;;;;5095721;28;20032;-69
2021/07/04 02:58:36;;;;;;;9.30;6.35;;;563.70;1510.40;;;;;;5096008;28;20020;-70
2021/07/04 03:01:02;;;;;;;12.98;6.15;;;563.70;1536.00;;;;;;5095769;28;20488;-69
2021/07/04 03:03:29;;;;;;;18.35;5.57;;;563.60;1536.00;;;;;;5095701;28;20099;-69
2021/07/04 03:05:55;;;;;;;11.73;5.55;;;563.60;1536.00;;;;;;5095658;28;20031;-69
2021/07/04 03:08:21;;;;;;;9.98;6.07;;;563.60;1536.00;;;;;;5095532;28;20119;-68
2021/07/04 03:10:48;;;;;;;10.48;6.05;;;563.60;1536.00;;;;;;5095538;28;20103;-69
2021/07/04 03:13:14;;;;;;;7.35;5.53;;;563.60;1536.00;;;;;;5095644;28;20032;-69
2021/07/04 03:15:40;;;;;;;9.07;5.65;;;563.60;1510.40;;;;;;5095415;28;20017;-69
2021/07/04 03:18:06;;;;;;;8.50;5.40;;;563.70;1510.40;;;;;;5095298;28;20028;-70
2021/07/04 03:20:32;;;;;;;9.75;5.80;;;563.70;1510.40;;;;;;5095311;28;20024;-69
2021/07/04 03:22:58;;;;;;;12.65;6.05;;;563.70;1510.40;;;;;;5095176;28;20476;-69
2021/07/04 03:25:24;;;;;;;7.28;5.55;;;563.70;1510.40;;;;;;5095038;28;20097;-69
2021/07/04 03:27:50;;;;;;;8.98;5.75;;;563.70;1510.40;;;;;;5095639;28;20178;-69
2021/07/04 03:30:19;;;;;;;10.25;6.50;;;563.70;1484.80;;;;;;5095013;28;20032;-69
2021/07/04 03:32:47;;;;;;;8.18;6.32;;;563.70;1484.80;;;;;;5095331;28;20365;-69
2021/07/04 03:35:15;;;;;;;6.93;5.93;;;563.70;1510.40;;;;;;5095250;28;20048;-69
2021/07/04 03:37:42;;;;;;;6.57;5.53;;;563.70;1510.40;;;;;;5095237;28;20361;-69
2021/07/04 03:40:11;;;;;;;8.27;5.53;;;563.70;1510.40;;;;;;5094936;28;20016;-69
2021/07/04 03:42:37;;;;;;;9.63;5.55;;;563.70;1484.80;;;;;;5094798;28;20515;-69
2021/07/04 03:45:04;;;;;;;9.02;5.75;;;563.70;1510.40;;;;;;5094802;28;20066;-70
2021/07/04 03:47:30;;;;;;;8.93;5.88;;;563.70;1510.40;;;;;;5094652;28;20024;-69
2021/07/04 03:49:56;;;;;;;7.85;5.70;;;563.60;1510.40;;;;;;5094761;28;20024;-69
2021/07/04 03:52:22;;;;;;;11.82;5.60;;;563.60;1510.40;;;;;;5094567;28;20472;-69
2021/07/04 03:54:49;;;;;;;7.68;5.28;;;563.60;1510.40;;;;;;5094741;28;20024;-69
2021/07/04 03:57:24;;;;;;;9.77;5.75;;;563.60;1510.40;;;;;;5094489;28;20543;-69
2021/07/04 03:59:52;;;;;;;12.77;6.63;;;563.70;1510.40;;;;;;5093306;28;20028;-69
2021/07/04 04:02:18;;;;;;;10.60;5.70;;;563.70;1510.40;;;;;;5094535;28;20020;-69
2021/07/04 04:04:44;;;;;;;8.93;5.88;;;563.70;1510.40;;;;;;5093803;28;20031;-69
2021/07/04 04:07:10;;;;;;;7.13;5.53;;;563.70;1510.40;;;;;;5093849;28;20099;-69
2021/07/04 04:09:37;;;;;;;9.15;5.35;;;563.70;1510.40;;;;;;5094688;28;20028;-69
2021/07/04 04:12:03;;;;;;;9.48;6.07;;;563.70;1510.40;;;;;;5094280;28;20538;-69
2021/07/04 04:14:29;;;;;;;8.02;5.03;;;563.70;1484.80;;;;;;5094269;28;20028;-69
2021/07/04 04:16:55;;;;;;;7.60;5.40;;;563.70;1484.80;;;;;;5094471;28;20016;-69
2021/07/04 04:19:21;;;;;;;6.40;5.53;;;563.80;1484.80;;;;;;5094349;28;20031;-69
2021/07/04 04:21:47;;;;;;;7.50;5.35;;;563.90;1484.80;;;;;;5094065;28;20534;-69
2021/07/04 04:24:12;;;;;;;8.63;5.53;;;563.90;1484.80;;;;;;5094169;28;20036;-70
2021/07/04 04:26:39;;;;;;;12.02;7.95;;;564.00;1484.80;;;;;;5093722;28;20388;-69
2021/07/04 04:29:05;;;;;;;8.18;5.82;;;564.00;1484.80;;;;;;5093996;28;20385;-69
2021/07/04 04:31:31;;;;;;;41.67;8.15;;;564.10;1484.80;;;;;;5094198;28;20024;-69
2021/07/04 04:33:58;;;;;;;113.03;12.63;;;588.80;1484.80;;;;;;5093863;28;20160;-70
2021/07/04 04:36:24;;;;;;;88.05;10.80;;;588.80;1510.40;;;;;;5093896;28;20058;-69
2021/07/04 04:38:51;;;;;;;50.75;8.60;;;588.80;1510.40;;;;;;5093492;28;20376;-69
2021/07/04 04:41:19;;;;;;;115.15;12.02;;;588.80;1510.40;;;;;;5092031;28;20016;-70
2021/07/04 04:43:45;;;;;;;30.33;6.68;;;588.80;1510.40;;;;;;5093450;28;20028;-69
2021/07/04 04:46:11;;;;;;;45.75;7.25;;;588.80;1510.40;;;;;;5093685;28;20038;-69
2021/07/04 04:48:38;;;;;;;29.17;7.38;;;588.80;1536.00;;;;;;5093866;28;20043;-69
2021/07/04 04:51:05;;;;;;;13.75;6.22;;;588.80;1536.00;;;;;;5093612;28;20024;-69
2021/07/04 04:53:30;;;;;;;19.67;6.15;;;588.80;1536.00;;;;;;5093405;28;20109;-69
2021/07/04 04:55:56;;;;;;;12.02;6.70;;;588.90;1536.00;;;;;;5092188;28;20464;-69
2021/07/04 04:58:22;;;;;;;12.48;6.32;;;588.90;1536.00;;;;;;5093564;28;20024;-69
2021/07/04 05:00:48;;;;;;;20.27;6.90;;;588.90;1510.40;;;;;;5093551;28;20111;-69
2021/07/04 05:03:14;;;;;;;155.68;14.15;;;589.00;1510.40;;;;;;5093622;28;20020;-70
2021/07/04 05:05:40;;;;;;;37.95;7.45;;;589.00;1510.40;;;;;;5093568;28;20541;-69
2021/07/04 05:08:06;;;;;;;39.13;7.85;;;589.00;1536.00;;;;;;5093495;28;20036;-69
2021/07/04 05:10:32;;;;;;;85.85;9.65;;;589.00;1536.00;;;;;;5093557;28;20024;-69
2021/07/04 05:12:58;;;;;;;37.00;7.85;;;589.10;1510.40;;;;;;5093330;28;20073;-70
2021/07/04 05:15:24;;;;;;;60.53;8.48;;;589.10;1561.60;;;;;;5093363;28;20028;-69
2021/07/04 05:17:50;;;;;;;34.42;7.57;;;589.20;1561.60;;;;;;5093320;28;20025;-69
2021/07/04 05:20:16;;;;;;;27.42;7.28;;;589.20;1536.00;;;;;;5096685;28;20023;-69
2021/07/04 05:22:42;;;;;;;12.45;6.70;;;589.20;1536.00;;;;;;5097543;28;20372;-69
2021/07/04 05:25:09;;;;;;;69.55;9.10;;;589.30;1536.00;;;;;;5097336;28;20125;-69
2021/07/04 05:27:35;;;;;;;126.18;11.82;;;589.40;1536.00;;;;;;5097508;28;20035;-69
2021/07/04 05:30:02;;;;;;;96.15;10.38;;;589.40;1510.40;;;;;;5097655;28;20028;-69
2021/07/04 05:32:28;;;;;;;169.45;14.80;;;589.40;1510.40;;;;;;5097355;28;20036;-69
2021/07/04 05:34:54;;;;;;;111.03;12.63;;;589.40;1510.40;;;;;;5097283;28;20480;-69
2021/07/04 05:37:20;;;;;;;33.30;7.72;;;589.50;1536.00;;;;;;5097576;28;20036;-70
2021/07/04 05:39:46;;;;;;;56.88;8.88;;;589.60;1510.40;;;;;;5097486;28;20073;-69
2021/07/04 05:42:12;;;;;;;24.58;7.15;;;589.60;1510.40;;;;;;5097132;28;20034;-69
2021/07/04 05:44:39;;;;;;;14.20;6.03;;;589.60;1536.00;;;;;;5097188;28;20091;-69
2021/07/04 05:47:05;;;;;;;12.38;6.80;;;589.70;1510.40;;;;;;5096981;28;20533;-69
2021/07/04 05:49:31;;;;;;;8.75;6.20;;;589.70;1510.40;;;;;;5097106;28;20081;-70
2021/07/04 05:51:57;;;;;;;15.13;6.78;;;589.70;1510.40;;;;;;5097221;28;20025;-69
2021/07/04 05:54:23;;;;;;;66.60;9.43;;;589.70;1510.40;;;;;;5097040;28;20472;-70
2021/07/04 05:56:49;;;;;;;22.27;7.63;;;614.40;1510.40;;;;;;5096877;28;20020;-70
2021/07/04 05:59:15;;;;;;;30.35;8.68;;;614.40;1510.40;;;;;;5096860;28;20058;-69
2021/07/04 06:01:41;;;;;;;57.78;9.45;;;614.40;1510.40;;;;;;5096762;28;20028;-69
2021/07/04 06:04:08;;;;;;;67.72;10.13;;;614.50;1510.40;;;;;;5096756;28;20031;-69
2021/07/04 06:06:34;;;;;;;30.98;8.32;;;614.60;1510.40;;;;;;5096662;28;20542;-69
2021/07/04 06:09:00;;;;;;;29.20;7.43;;;614.60;1510.40;;;;;;5096655;28;20047;-69
2021/07/04 06:11:26;;;;;;;22.00;6.90;;;614.70;1510.40;;;;;;5096492;28;20476;-69
2021/07/04 06:13:52;;;;;;;29.90;7.70;;;614.70;1484.80;;;;;;5096603;28;20483;-69
2021/07/04 06:16:18;;;;;;;15.43;6.80;;;614.80;1484.80;;;;;;5096797;28;20059;-69
2021/07/04 06:18:43;;;;;;;18.98;7.22;;;614.80;1484.80;;;;;;5096561;28;20419;-69
2021/07/04 06:21:09;;;;;;;16.70;7.45;;;614.80;1510.40;;;;;;5096414;28;20469;-69
2021/07/04 06:23:35;;;;;;;14.50;6.85;;;614.90;1484.80;;;;;;5096397;28;20020;-69
2021/07/04 06:26:01;;;;;;;22.90;8.20;;;614.90;1484.80;;;;;;5096239;28;20044;-69
2021/07/04 06:28:27;;;;;;;13.88;7.30;;;614.90;1484.80;;;;;;5096213;28;20438;-69
2021/07/04 06:30:53;;;;;;;11.85;6.63;;;615.00;1484.80;;;;;;5096076;28;20024;-69
2021/07/04 06:33:19;;;;;;;8.82;6.43;;;615.10;1459.20;;;;;;5096226;28;20024;-69
2021/07/04 06:35:45;;;;;;;10.32;6.75;;;615.10;1484.80;;;;;;5095691;28;20400;-69
2021/07/04 06:38:11;;;;;;;16.88;6.93;;;615.20;1459.20;;;;;;5096553;28;20038;-70
2021/07/04 06:40:37;;;;;;;8.77;6.13;;;615.20;1459.20;;;;;;5096281;28;20024;-69
2021/07/04 06:43:02;;;;;;;9.05;6.68;;;615.30;1459.20;;;;;;5095776;28;20024;-69
2021/07/04 06:45:28;;;;;;;12.18;7.97;;;640.00;1459.20;;;;;;5095542;28;20016;-69
2021/07/04 06:47:54;;;;;;;8.65;7.07;;;640.10;1433.60;;;;;;5095596;28;20024;-70
2021/07/04 06:50:21;;;;;;;8.70;6.60;;;640.10;1433.60;;;;;;5092793;28;20089;-70
2021/07/04 06:52:47;;;;;;;18.15;6.75;;;640.20;1433.60;;;;;;5095859;28;20016;-69
2021/07/04 06:55:14;;;;;;;13.43;6.88;;;640.20;1433.60;;;;;;5095456;28;20031;-70
2021/07/04 06:57:40;;;;;;;11.57;6.63;;;640.30;1433.60;;;;;;5092742;28;20035;-70
2021/07/04 07:00:13;;;;;;;11.77;6.15;;;640.50;1433.60;;;;;;5095371;28;20012;-69
2021/07/04 07:02:39;;;;;;;8.53;6.10;;;640.60;1408.00;;;;;;5094886;28;20024;-68
2021/07/04 07:05:07;;;;;;;11.38;6.22;;;640.70;1408.00;;;;;;5095525;28;20729;-69
2021/07/04 07:07:33;;;;;;;10.90;6.25;;;640.70;1382.40;;;;;;5095675;28;20484;-71
2021/07/04 07:09:59;;;;;;;9.02;4.93;;;640.70;1382.40;;;;;;5095748;28;20021;-69
2021/07/04 07:12:25;;;;;;;20.95;6.63;;;640.80;1382.40;;;;;;5095538;28;20495;-69
2021/07/04 07:14:51;;;;;;;7.32;5.30;;;665.60;1382.40;;;;;;5095628;28;20039;-69
2021/07/04 07:17:17;;;;;;;45.15;7.60;;;665.60;1331.20;;;;;;5095424;28;20020;-69
2021/07/04 07:19:43;;;;;;;31.70;6.88;;;665.60;1382.40;;;;;;5095333;28;20380;-69
2021/07/04 07:22:09;;;;;;;30.23;6.22;;;665.70;1356.80;;;;;;5095368;28;20035;-70
2021/07/04 07:24:35;;;;;;;15.02;6.10;;;665.70;1331.20;;;;;;5095238;28;20032;-70
2021/07/04 07:27:01;;;;;;;21.30;6.45;;;665.70;1356.80;;;;;;5095343;28;20073;-70
2021/07/04 07:29:27;;;;;;;17.77;5.75;;;665.70;1356.80;;;;;;5095289;28;20032;-69
2021/07/04 07:31:53;;;;;;;16.63;5.60;;;665.70;1356.80;;;;;;5095222;28;20027;-70
2021/07/04 07:34:19;;;;;;;11.55;7.78;;;665.70;1356.80;;;;;;5095249;28;20032;-70
2021/07/04 07:36:45;;;;;;;17.08;6.00;;;665.60;1356.80;;;;;;5094931;28;20039;-69
2021/07/04 07:39:11;;;;;;;18.33;5.90;;;665.60;1331.20;;;;;;5094646;28;20024;-69
2021/07/04 07:41:37;;;;;;;18.77;6.15;;;665.60;1356.80;;;;;;5093824;28;20044;-69
2021/07/04 07:44:03;;;;;;;18.15;5.43;;;665.60;1356.80;;;;;;5094576;28;20528;-70
2021/07/04 07:46:29;;;;;;;14.80;5.57;;;665.60;1356.80;;;;;;5094455;28;20492;-70
2021/07/04 07:48:55;;;;;;;15.52;5.90;;;665.70;1331.20;;;;;;5093126;28;20032;-69
2021/07/04 07:51:21;;;;;;;24.33;6.13;;;665.70;1356.80;;;;;;5094703;28;20016;-69
2021/07/04 07:53:47;;;;;;;10.75;4.95;;;665.70;1331.20;;;;;;5094443;28;20552;-69
2021/07/04 07:56:13;;;;;;;9.60;5.00;;;665.80;1331.20;;;;;;5094822;28;20020;-69
2021/07/04 07:58:43;;;;;;;11.63;5.20;;;665.90;1331.20;;;;;;5095313;28;20089;-69
2021/07/04 08:01:09;;;;;;;8.30;5.03;;;666.00;1280.00;;;;;;5093383;28;20031;-69
2021/07/04 08:03:35;;;;;;;10.70;5.30;;;666.10;1305.60;;;;;;5092755;28;20028;-69
2021/07/04 08:06:00;;;;;;;9.25;4.80;;;666.20;1331.20;;;;;;5094485;28;20077;-69
2021/07/04 08:08:26;;;;;;;8.77;4.85;;;666.20;1280.00;;;;;;5094442;28;20032;-69
2021/07/04 08:10:52;;;;;;;7.57;4.32;;;666.20;1254.40;;;;;;5094815;28;20020;-69
2021/07/04 08:13:18;;;;;;;5.90;4.28;;;666.30;1203.20;;;;;;5094408;28;20107;-69
2021/07/04 08:15:44;;;;;;;7.85;4.50;;;666.30;1254.40;;;;;;5094493;28;20024;-69
2021/07/04 08:18:10;;;;;;;9.45;4.75;;;666.40;1280.00;;;;;;5094341;28;20028;-69
2021/07/04 08:20:36;;;;;;;9.27;4.43;;;666.50;1254.40;;;;;;5094342;28;20035;-69
2021/07/04 08:23:02;;;;;;;10.43;5.20;;;691.20;1254.40;;;;;;5094511;28;20032;-68
2021/07/04 08:25:28;;;;;;;6.68;4.63;;;691.30;1254.40;;;;;;5093983;28;20412;-69
2021/07/04 08:27:53;;;;;;;7.65;4.50;;;691.30;1254.40;;;;;;5094414;28;20042;-68
2021/07/04 08:30:22;;;;;;;7.18;4.78;;;691.30;1254.40;;;;;;5094141;28;20484;-68
2021/07/04 08:32:48;;;;;;;5.88;4.32;;;691.40;1228.80;;;;;;5094069;28;20039;-70
2021/07/04 08:35:14;;;;;;;8.85;3.88;;;691.40;1152.00;;;;;;5094090;28;20016;-69
2021/07/04 08:37:40;;;;;;;12.63;4.40;;;691.40;1126.40;;;;;;5094365;28;20426;-71
2021/07/04 08:40:08;;;;;;;7.32;3.53;;;691.30;1177.60;;;;;;5093707;28;20408;-69
2021/07/04 08:42:34;;;;;;;8.60;4.78;;;691.30;1126.40;;;;;;5093413;28;20061;-69
2021/07/04 08:45:01;;;;;;;8.57;4.32;;;691.40;1203.20;;;;;;5093262;28;20537;-69
2021/07/04 08:47:27;;;;;;;5.35;4.38;;;691.40;1126.40;;;;;;5093247;28;20016;-69
2021/07/04 08:49:55;;;;;;;9.40;4.75;;;691.50;1228.80;;;;;;5093339;28;20107;-69
2021/07/04 08:52:21;;;;;;;13.02;4.07;;;691.50;1203.20;;;;;;5093310;28;20024;-69
2021/07/04 08:54:48;;;;;;;5.43;4.20;;;691.50;1152.00;;;;;;5093053;28;20051;-69
2021/07/04 08:57:16;;;;;;;6.85;3.50;;;691.60;1177.60;;;;;;5094044;28;20024;-69
2021/07/04 08:59:44;;;;;;;7.65;4.30;;;691.60;1100.80;;;;;;5092098;28;20036;-70
2021/07/04 09:02:12;;;;;;;9.43;5.13;;;691.70;1203.20;;;;;;5093071;28;20023;-69
2021/07/04 09:04:39;;;;;;;5.53;4.07;;;691.70;1152.00;;;;;;5092896;28;20487;-69
2021/07/04 09:07:05;;;;;;;8.50;4.22;;;691.80;1177.60;;;;;;5093002;28;20058;-69
2021/07/04 09:09:33;;;;;;;5.10;4.60;;;691.70;1126.40;;;;;;5092873;28;20051;-69
2021/07/04 09:12:08;;;;;;;5.28;4.40;;;691.70;1126.40;;;;;;5091766;28;20017;-69
2021/07/04 09:14:37;;;;;;;10.73;4.20;;;691.80;1152.00;;;;;;5092751;28;20115;-69
2021/07/04 09:17:07;;;;;;;5.32;4.22;;;691.70;1177.60;;;;;;5092908;28;20134;-69
2021/07/04 09:19:33;;;;;;;5.90;4.07;;;691.70;1177.60;;;;;;5093064;28;20081;-69
2021/07/04 09:22:05;;;;;;;10.82;4.60;;;691.70;1126.40;;;;;;5092642;28;20433;-69
2021/07/04 09:24:35;;;;;;;7.60;5.10;;;691.70;1177.60;;;;;;5093032;28;20121;-70
2021/07/04 09:27:02;;;;;;;10.35;4.90;;;691.70;1152.00;;;;;;5092006;28;20418;-70
2021/07/04 09:29:45;;;;;;;9.57;4.70;;;691.70;1177.60;;;;;;5092966;28;20024;-70
2021/07/04 09:32:26;;;;;;;6.65;4.43;;;691.70;1126.40;;;;;;5092413;28;20024;-69
2021/07/04 09:35:02;;;;;;;6.88;4.30;;;691.80;1126.40;;;;;;5092947;28;20515;-69
2021/07/04 09:37:35;;;;;;;6.38;4.72;;;691.80;1152.00;;;;;;5093397;28;20093;-69
2021/07/04 09:40:07;;;;;;;5.93;4.07;;;691.80;1177.60;;;;;;5090090;28;20035;-69
2021/07/04 09:42:33;;;;;;;8.90;4.28;;;691.80;1126.40;;;;;;5092555;28;20566;-69
2021/07/04 09:44:59;;;;;;;12.10;4.07;;;691.80;1152.00;;;;;;5092305;28;20120;-69
2021/07/04 09:47:25;;;;;;;10.48;4.63;;;691.80;1177.60;;;;;;5091652;28;20094;-69
2021/07/04 09:50:02;;;;;;;15.32;5.30;;;691.80;1177.60;;;;;;5092751;28;20044;-69
2021/07/04 09:52:28;;;;;;;18.70;4.80;;;691.80;1177.60;;;;;;5091666;28;20024;-69
2021/07/04 09:55:02;;;;;;;18.95;5.20;;;691.70;1177.60;;;;;;5092407;28;20069;-69
2021/07/04 09:57:48;;;;;;;24.23;5.03;;;691.80;1177.60;;;;;;5092249;28;20027;-69
2021/07/04 10:00:19;;;;;;;11.65;4.97;;;691.80;1177.60;;;;;;5089694;28;20016;-69
2021/07/04 10:03:20;;;;;;;6.82;3.88;;;691.90;1152.00;;;;;;5092548;28;20017;-69
2021/07/04 10:05:54;;;;;;;6.82;4.15;;;691.90;1152.00;;;;;;5094905;28;20107;-69
2021/07/04 10:08:23;;;;;;;14.55;4.70;;;691.90;1152.00;;;;;;5096197;28;20031;-69
2021/07/04 10:10:51;;;;;;;13.90;4.65;;;691.90;1177.60;;;;;;5096422;28;20032;-69
2021/07/04 10:13:18;;;;;;;11.82;4.47;;;691.90;1126.40;;;;;;5096729;28;20039;-70
2021/07/04 10:15:44;;;;;;;16.10;4.53;;;691.90;1126.40;;;;;;5096603;28;20081;-69
2021/07/04 10:18:12;;;;;;;6.80;4.00;;;691.90;1126.40;;;;;;5096692;28;20028;-69
2021/07/04 10:20:39;;;;;;;5.75;4.10;;;691.90;1126.40;;;;;;5096705;28;20072;-70
2021/07/04 10:23:10;;;;;;;10.68;4.53;;;691.90;1126.40;;;;;;5096758;28;20027;-70
2021/07/04 10:25:36;;;;;;;8.45;4.40;;;691.90;1152.00;;;;;;5096360;28;20046;-69
2021/07/04 10:28:03;;;;;;;6.22;3.67;;;691.90;1126.40;;;;;;5096737;28;20047;-69
2021/07/04 10:30:31;;;;;;;11.93;5.10;;;691.90;1100.80;;;;;;5096449;28;20085;-68
2021/07/04 10:33:18;;;;;;;10.68;5.03;;;691.90;1152.00;;;;;;5095003;28;20039;-69
2021/07/04 10:36:05;;;;;;;9.80;4.18;;;692.00;1152.00;;;;;;5096566;28;20028;-69
2021/07/04 10:38:43;;;;;;;7.88;3.83;;;692.00;1126.40;;;;;;5096316;28;20042;-69
2021/07/04 10:41:12;;;;;;;10.13;4.00;;;692.00;1100.80;;;;;;5096216;28;20038;-68
2021/07/04 10:43:56;;;;;;;6.40;4.22;;;691.90;1126.40;;;;;;5096243;28;20035;-69
2021/07/04 10:46:46;;;;;;;6.63;4.53;;;691.90;1152.00;;;;;;5096143;28;20027;-70
2021/07/04 10:49:16;;;;;;;5.03;4.00;;;691.90;1152.00;;;;;;5088413;28;20563;-69
2021/07/04 10:52:11;;;;;;;10.48;4.10;;;691.90;1100.80;;;;;;5096167;28;20081;-69
2021/07/04 10:54:46;;;;;;;5.80;3.97;;;691.90;1152.00;;;;;;5096096;28;20533;-70
2021/07/04 10:57:35;;;;;;;5.47;4.00;;;691.90;1152.00;;;;;;5096308;28;20457;-70
2021/07/04 11:00:04;;;;;;;4.78;3.67;;;691.80;1152.00;;;;;;5096111;28;20100;-68
2021/07/04 11:02:57;;;;;;;7.65;3.92;;;691.90;1152.00;;;;;;5095833;28;20024;-69
2021/07/04 11:05:35;;;;;;;5.80;3.97;;;691.90;1152.00;;;;;;5096110;28;20027;-69
2021/07/04 11:08:06;;;;;;;4.65;4.07;;;691.90;1152.00;;;;;;5095655;28;20027;-68
2021/07/04 11:10:35;;;;;;;4.72;3.85;;;691.90;1152.00;;;;;;5095627;28;20074;-69
2021/07/04 11:13:07;;;;;;;6.00;3.50;;;691.80;1126.40;;;;;;5095685;28;20020;-69
2021/07/04 11:15:33;;;;;;;6.35;3.90;;;691.90;1126.40;;;;;;5095457;28;20096;-69
2021/07/04 11:18:08;;;;;;;6.78;3.70;;;691.90;1126.40;;;;;;5094487;28;20039;-69
2021/07/04 11:20:52;;;;;;;8.38;3.85;;;691.90;1126.40;;;;;;5095726;28;20046;-69
2021/07/04 11:23:26;;;;;;;5.68;3.78;;;691.90;1100.80;;;;;;5096139;28;20105;-69
2021/07/04 11:25:56;;;;;;;5.90;3.97;;;691.90;1126.40;;;;;;5095352;28;20535;-69
2021/07/04 11:28:23;;;;;;;6.85;3.58;;;691.90;1126.40;;;;;;5095350;28;20036;-70
2021/07/04 11:31:02;;;;;;;5.78;3.33;;;691.90;1126.40;;;;;;5095257;28;20055;-69
2021/07/04 11:33:50;;;;;;;7.45;4.20;;;691.90;1126.40;;;;;;5095519;28;20023;-69
2021/07/04 11:36:16;;;;;;;9.23;3.60;;;692.00;1126.40;;;;;;5095244;28;20024;-70
2021/07/04 11:38:57;;;;;;;4.50;3.22;;;692.00;1126.40;;;;;;5095706;28;20415;-69
2021/07/04 11:41:53;;;;;;;8.85;4.20;;;692.00;1126.40;;;;;;5095005;28;20028;-69
2021/07/04 11:44:22;;;;;;;30.33;9.95;;;692.00;1126.40;;;;;;5092069;28;20035;-68
2021/07/04 11:46:53;;;;;;;59.58;16.33;;;692.00;1100.80;;;;;;5094357;28;20038;-69
2021/07/04 11:49:27;;;;;;;60.47;18.00;;;692.00;1126.40;;;;;;5094348;28;20069;-69
2021/07/04 11:51:54;;;;;;;45.63;14.55;;;692.10;1126.40;;;;;;5093260;28;20024;-69
2021/07/04 11:54:30;;;;;;;46.38;15.07;;;716.80;1152.00;;;;;;5092874;28;20016;-69
2021/07/04 11:57:29;;;;;;;33.78;10.75;;;716.80;1152.00;;;;;;5091599;28;20476;-69
2021/07/04 12:00:00;;;;;;;29.35;9.95;;;716.80;1152.00;;;;;;5092781;28;20115;-70
2021/07/04 12:02:27;;;;;;;16.75;6.82;;;717.00;1126.40;;;;;;5092844;28;20468;-70
2021/07/04 12:04:53;;;;;;;41.03;8.48;;;717.00;1126.40;;;;;;5092783;28;20062;-70
2021/07/04 12:07:26;;;;;;;18.05;6.97;;;717.00;1126.40;;;;;;5093799;28;20020;-70
2021/07/04 12:09:57;;;;;;;9.80;4.47;;;717.00;1126.40;;;;;;5093902;28;20027;-70
2021/07/04 12:12:26;;;;;;;19.52;7.70;;;717.00;1049.60;;;;;;5091521;28;20016;-70
2021/07/04 12:14:56;;;;;;;13.82;6.50;;;717.00;1126.40;;;;;;5093945;28;20480;-70
2021/07/04 12:17:29;;;;;;;14.07;5.72;;;717.00;1152.00;;;;;;5091217;28;20024;-70
2021/07/04 12:19:57;;;;;;;;;;;717.00;1100.80;;;;;;5094234;28;20035;-70